sensor_id;sensor_type;location;lat;lon;timestamp;P1;durP1;ratioP1;P2;durP2;ratioP2
39442;SDS011;25147;52.142;9.960;2023-08-17T00:00:37;6.38;;;4.05;;
39442;SDS011;25147;52.142;9.960;2023-08-17T00:03:04;5.38;;;3.88;;
39442;SDS011;25147;52.142;9.960;2023-08-17T00:05:31;5.10;;;3.95;;
39442;SDS011;25147;52.142;9.960;2023-08-17T00:07:59;4.50;;;4.10;;
39442;SDS011;25147;52.142;9.960;2023-08-17T00:10:27;4.80;;;4.35;;
39442;SDS011;25147;52.142;9.960;2023-08-17T00:12:54;4.85;;;4.15;;
39442;SDS011;25147;52.142;9.960;2023-08-17T00:15:23;5.28;;;4.05;;
39442;SDS011;25147;52.142;9.960;2023-08-17T00:17:50;4.80;;;4.20;;
39442;SDS011;25147;52.142;9.960;2023-08-17T00:20:17;9.52;;;5.15;;
39442;SDS011;25147;52.142;9.960;2023-08-17T00:22:44;9.38;;;5.18;;
39442;SDS011;25147;52.142;9.960;2023-08-17T00:25:11;6.28;;;4.88;;
39442;SDS011;25147;52.142;9.960;2023-08-17T00:27:43;7.65;;;5.20;;
39442;SDS011;25147;52.142;9.960;2023-08-17T00:30:10;6.78;;;4.80;;
39442;SDS011;25147;52.142;9.960;2023-08-17T00:32:45;8.13;;;5.57;;
39442;SDS011;25147;52.142;9.960;2023-08-17T00:35:13;8.73;;;5.28;;
39442;SDS011;25147;52.142;9.960;2023-08-17T00:37:40;7.55;;;4.97;;
39442;SDS011;25147;52.142;9.960;2023-08-17T00:40:08;5.75;;;5.18;;
39442;SDS011;25147;52.142;9.960;2023-08-17T00:42:35;7.03;;;5.78;;
39442;SDS011;25147;52.142;9.960;2023-08-17T00:45:02;11.88;;;5.88;;
39442;SDS011;25147;52.142;9.960;2023-08-17T00:47:30;8.07;;;5.88;;
39442;SDS011;25147;52.142;9.960;2023-08-17T00:50:00;7.93;;;5.82;;
39442;SDS011;25147;52.142;9.960;2023-08-17T00:52:28;7.35;;;5.70;;
39442;SDS011;25147;52.142;9.960;2023-08-17T00:54:58;6.95;;;5.47;;
39442;SDS011;25147;52.142;9.960;2023-08-17T00:57:33;6.55;;;5.53;;
39442;SDS011;25147;52.142;9.960;2023-08-17T01:00:00;9.98;;;6.32;;
39442;SDS011;25147;52.142;9.960;2023-08-17T01:02:28;8.48;;;6.28;;
39442;SDS011;25147;52.142;9.960;2023-08-17T01:04:55;5.88;;;5.30;;
39442;SDS011;25147;52.142;9.960;2023-08-17T01:07:23;12.77;;;6.78;;
39442;SDS011;25147;52.142;9.960;2023-08-17T01:09:50;8.48;;;6.90;;
39442;SDS011;25147;52.142;9.960;2023-08-17T01:12:19;10.32;;;7.40;;
39442;SDS011;25147;52.142;9.960;2023-08-17T01:14:54;9.05;;;6.47;;
39442;SDS011;25147;52.142;9.960;2023-08-17T01:17:27;11.13;;;6.95;;
39442;SDS011;25147;52.142;9.960;2023-08-17T01:19:59;11.48;;;7.25;;
39442;SDS011;25147;52.142;9.960;2023-08-17T01:22:30;10.40;;;7.57;;
39442;SDS011;25147;52.142;9.960;2023-08-17T01:25:00;11.57;;;7.50;;
39442;SDS011;25147;52.142;9.960;2023-08-17T01:30:11;9.23;;;7.72;;
39442;SDS011;25147;52.142;9.960;2023-08-17T01:32:41;7.80;;;6.82;;
39442;SDS011;25147;52.142;9.960;2023-08-17T01:35:14;10.88;;;7.70;;
39442;SDS011;25147;52.142;9.960;2023-08-17T01:37:50;8.30;;;7.25;;
39442;SDS011;25147;52.142;9.960;2023-08-17T01:40:20;11.57;;;7.90;;
39442;SDS011;25147;52.142;9.960;2023-08-17T01:42:49;13.70;;;8.35;;
39442;SDS011;25147;52.142;9.960;2023-08-17T01:45:18;9.05;;;8.15;;
39442;SDS011;25147;52.142;9.960;2023-08-17T01:47:45;9.43;;;8.27;;
39442;SDS011;25147;52.142;9.960;2023-08-17T01:50:15;8.63;;;7.65;;
39442;SDS011;25147;52.142;9.960;2023-08-17T01:52:41;8.10;;;6.85;;
39442;SDS011;25147;52.142;9.960;2023-08-17T01:55:09;13.02;;;7.53;;
39442;SDS011;25147;52.142;9.960;2023-08-17T01:57:37;11.65;;;7.75;;
39442;SDS011;25147;52.142;9.960;2023-08-17T02:00:06;11.77;;;7.40;;
39442;SDS011;25147;52.142;9.960;2023-08-17T02:02:35;8.32;;;7.28;;
39442;SDS011;25147;52.142;9.960;2023-08-17T02:05:03;10.18;;;7.70;;
39442;SDS011;25147;52.142;9.960;2023-08-17T02:07:30;8.98;;;7.70;;
39442;SDS011;25147;52.142;9.960;2023-08-17T02:09:57;9.57;;;8.00;;
39442;SDS011;25147;52.142;9.960;2023-08-17T02:12:25;9.10;;;8.05;;
39442;SDS011;25147;52.142;9.960;2023-08-17T02:14:53;11.77;;;8.85;;
39442;SDS011;25147;52.142;9.960;2023-08-17T02:17:20;15.15;;;8.73;;
39442;SDS011;25147;52.142;9.960;2023-08-17T02:19:47;10.23;;;9.00;;
39442;SDS011;25147;52.142;9.960;2023-08-17T02:22:14;9.82;;;8.93;;
39442;SDS011;25147;52.142;9.960;2023-08-17T02:24:41;11.02;;;8.75;;
39442;SDS011;25147;52.142;9.960;2023-08-17T02:27:08;10.35;;;9.25;;
39442;SDS011;25147;52.142;9.960;2023-08-17T02:29:36;11.55;;;8.68;;
39442;SDS011;25147;52.142;9.960;2023-08-17T02:32:04;10.80;;;8.63;;
39442;SDS011;25147;52.142;9.960;2023-08-17T02:34:31;9.88;;;8.90;;
39442;SDS011;25147;52.142;9.960;2023-08-17T02:36:58;9.65;;;8.75;;
39442;SDS011;25147;52.142;9.960;2023-08-17T02:39:25;11.80;;;9.20;;
39442;SDS011;25147;52.142;9.960;2023-08-17T02:41:52;10.30;;;9.00;;
39442;SDS011;25147;52.142;9.960;2023-08-17T02:44:20;9.93;;;8.75;;
39442;SDS011;25147;52.142;9.960;2023-08-17T02:46:47;10.15;;;8.93;;
39442;SDS011;25147;52.142;9.960;2023-08-17T02:49:15;11.98;;;9.70;;
39442;SDS011;25147;52.142;9.960;2023-08-17T02:51:42;12.50;;;9.13;;
39442;SDS011;25147;52.142;9.960;2023-08-17T02:54:09;13.27;;;9.90;;
39442;SDS011;25147;52.142;9.960;2023-08-17T02:56:36;11.18;;;9.85;;
39442;SDS011;25147;52.142;9.960;2023-08-17T02:59:03;9.60;;;8.75;;
39442;SDS011;25147;52.142;9.960;2023-08-17T03:01:30;10.10;;;9.02;;
39442;SDS011;25147;52.142;9.960;2023-08-17T03:03:57;12.10;;;9.93;;
39442;SDS011;25147;52.142;9.960;2023-08-17T03:06:25;10.30;;;9.32;;
39442;SDS011;25147;52.142;9.960;2023-08-17T03:08:52;11.30;;;9.68;;
39442;SDS011;25147;52.142;9.960;2023-08-17T03:11:20;10.50;;;9.50;;
39442;SDS011;25147;52.142;9.960;2023-08-17T03:13:47;11.98;;;9.77;;
39442;SDS011;25147;52.142;9.960;2023-08-17T03:16:14;12.80;;;9.50;;
39442;SDS011;25147;52.142;9.960;2023-08-17T03:18:40;10.02;;;9.15;;
39442;SDS011;25147;52.142;9.960;2023-08-17T03:21:08;12.55;;;9.77;;
39442;SDS011;25147;52.142;9.960;2023-08-17T03:23:37;12.23;;;10.10;;
39442;SDS011;25147;52.142;9.960;2023-08-17T03:26:03;11.20;;;10.10;;
39442;SDS011;25147;52.142;9.960;2023-08-17T03:28:30;10.73;;;9.65;;
39442;SDS011;25147;52.142;9.960;2023-08-17T03:30:58;11.45;;;10.32;;
39442;SDS011;25147;52.142;9.960;2023-08-17T03:33:24;10.43;;;9.43;;
39442;SDS011;25147;52.142;9.960;2023-08-17T03:35:51;11.77;;;10.50;;
39442;SDS011;25147;52.142;9.960;2023-08-17T03:38:18;11.32;;;10.23;;
39442;SDS011;25147;52.142;9.960;2023-08-17T03:40:47;12.27;;;10.13;;
39442;SDS011;25147;52.142;9.960;2023-08-17T03:43:14;12.27;;;10.30;;
39442;SDS011;25147;52.142;9.960;2023-08-17T03:45:41;12.48;;;11.20;;
39442;SDS011;25147;52.142;9.960;2023-08-17T03:48:08;12.25;;;10.77;;
39442;SDS011;25147;52.142;9.960;2023-08-17T03:50:35;12.70;;;11.38;;
39442;SDS011;25147;52.142;9.960;2023-08-17T03:53:02;12.82;;;11.52;;
39442;SDS011;25147;52.142;9.960;2023-08-17T03:55:29;13.23;;;11.93;;
39442;SDS011;25147;52.142;9.960;2023-08-17T03:57:58;14.10;;;11.77;;
39442;SDS011;25147;52.142;9.960;2023-08-17T04:00:25;13.77;;;12.23;;
39442;SDS011;25147;52.142;9.960;2023-08-17T04:02:52;13.38;;;11.85;;
39442;SDS011;25147;52.142;9.960;2023-08-17T04:05:21;13.07;;;11.70;;
39442;SDS011;25147;52.142;9.960;2023-08-17T04:07:48;12.02;;;10.90;;
39442;SDS011;25147;52.142;9.960;2023-08-17T04:10:15;13.45;;;11.35;;
39442;SDS011;25147;52.142;9.960;2023-08-17T04:12:42;11.88;;;10.57;;
39442;SDS011;25147;52.142;9.960;2023-08-17T04:15:10;12.00;;;10.73;;
39442;SDS011;25147;52.142;9.960;2023-08-17T04:17:37;12.63;;;10.95;;
39442;SDS011;25147;52.142;9.960;2023-08-17T04:20:03;12.35;;;11.07;;
39442;SDS011;25147;52.142;9.960;2023-08-17T04:22:30;12.40;;;11.23;;
39442;SDS011;25147;52.142;9.960;2023-08-17T04:24:57;12.05;;;10.82;;
39442;SDS011;25147;52.142;9.960;2023-08-17T04:27:24;12.35;;;10.88;;
39442;SDS011;25147;52.142;9.960;2023-08-17T04:29:51;10.93;;;10.13;;
39442;SDS011;25147;52.142;9.960;2023-08-17T04:32:19;12.30;;;11.07;;
39442;SDS011;25147;52.142;9.960;2023-08-17T04:34:46;12.55;;;11.48;;
39442;SDS011;25147;52.142;9.960;2023-08-17T04:37:13;13.00;;;11.85;;
39442;SDS011;25147;52.142;9.960;2023-08-17T04:39:40;13.30;;;11.27;;
39442;SDS011;25147;52.142;9.960;2023-08-17T04:42:08;12.63;;;11.52;;
39442;SDS011;25147;52.142;9.960;2023-08-17T04:44:35;12.63;;;11.45;;
39442;SDS011;25147;52.142;9.960;2023-08-17T04:47:02;14.60;;;12.77;;
39442;SDS011;25147;52.142;9.960;2023-08-17T04:49:40;13.00;;;11.80;;
39442;SDS011;25147;52.142;9.960;2023-08-17T04:59:40;15.55;;;14.13;;
39442;SDS011;25147;52.142;9.960;2023-08-17T05:02:18;16.40;;;15.00;;
39442;SDS011;25147;52.142;9.960;2023-08-17T05:04:47;15.05;;;13.75;;
39442;SDS011;25147;52.142;9.960;2023-08-17T05:07:13;15.48;;;14.13;;
39442;SDS011;25147;52.142;9.960;2023-08-17T05:09:40;14.98;;;13.60;;
39442;SDS011;25147;52.142;9.960;2023-08-17T05:12:07;15.48;;;14.13;;
39442;SDS011;25147;52.142;9.960;2023-08-17T05:14:34;15.02;;;13.65;;
39442;SDS011;25147;52.142;9.960;2023-08-17T05:17:01;14.52;;;13.20;;
39442;SDS011;25147;52.142;9.960;2023-08-17T05:19:28;14.52;;;13.25;;
39442;SDS011;25147;52.142;9.960;2023-08-17T05:21:57;13.60;;;12.43;;
39442;SDS011;25147;52.142;9.960;2023-08-17T05:24:24;14.25;;;13.00;;
39442;SDS011;25147;52.142;9.960;2023-08-17T05:26:51;13.25;;;12.18;;
39442;SDS011;25147;52.142;9.960;2023-08-17T05:29:18;14.00;;;12.80;;
39442;SDS011;25147;52.142;9.960;2023-08-17T05:31:45;14.10;;;12.75;;
39442;SDS011;25147;52.142;9.960;2023-08-17T05:34:11;13.15;;;11.85;;
39442;SDS011;25147;52.142;9.960;2023-08-17T05:36:38;13.25;;;11.88;;
39442;SDS011;25147;52.142;9.960;2023-08-17T05:39:07;14.80;;;13.40;;
39442;SDS011;25147;52.142;9.960;2023-08-17T05:41:34;14.93;;;13.43;;
39442;SDS011;25147;52.142;9.960;2023-08-17T05:44:01;13.93;;;12.60;;
39442;SDS011;25147;52.142;9.960;2023-08-17T05:46:28;13.85;;;12.65;;
39442;SDS011;25147;52.142;9.960;2023-08-17T05:48:55;14.07;;;12.77;;
39442;SDS011;25147;52.142;9.960;2023-08-17T05:51:23;13.18;;;12.07;;
39442;SDS011;25147;52.142;9.960;2023-08-17T05:53:51;13.52;;;12.43;;
39442;SDS011;25147;52.142;9.960;2023-08-17T05:56:19;11.95;;;10.85;;
39442;SDS011;25147;52.142;9.960;2023-08-17T05:58:46;12.48;;;11.52;;
39442;SDS011;25147;52.142;9.960;2023-08-17T06:01:13;13.60;;;12.40;;
39442;SDS011;25147;52.142;9.960;2023-08-17T06:03:40;11.65;;;10.55;;
39442;SDS011;25147;52.142;9.960;2023-08-17T06:06:07;11.90;;;10.90;;
39442;SDS011;25147;52.142;9.960;2023-08-17T06:08:34;12.70;;;11.48;;
39442;SDS011;25147;52.142;9.960;2023-08-17T06:11:01;10.90;;;9.80;;
39442;SDS011;25147;52.142;9.960;2023-08-17T06:13:29;11.30;;;10.30;;
39442;SDS011;25147;52.142;9.960;2023-08-17T06:15:56;10.40;;;9.55;;
39442;SDS011;25147;52.142;9.960;2023-08-17T06:18:23;9.27;;;8.57;;
39442;SDS011;25147;52.142;9.960;2023-08-17T06:20:49;10.30;;;9.50;;
39442;SDS011;25147;52.142;9.960;2023-08-17T06:23:18;10.13;;;9.32;;
39442;SDS011;25147;52.142;9.960;2023-08-17T06:25:45;10.15;;;9.25;;
39442;SDS011;25147;52.142;9.960;2023-08-17T06:28:12;9.77;;;8.80;;
39442;SDS011;25147;52.142;9.960;2023-08-17T06:30:40;9.60;;;8.82;;
39442;SDS011;25147;52.142;9.960;2023-08-17T06:33:07;9.05;;;8.07;;
39442;SDS011;25147;52.142;9.960;2023-08-17T06:35:34;10.00;;;9.20;;
39442;SDS011;25147;52.142;9.960;2023-08-17T06:38:01;9.27;;;8.45;;
39442;SDS011;25147;52.142;9.960;2023-08-17T06:40:28;9.48;;;8.63;;
39442;SDS011;25147;52.142;9.960;2023-08-17T06:42:55;9.32;;;7.88;;
39442;SDS011;25147;52.142;9.960;2023-08-17T06:45:22;9.73;;;8.85;;
39442;SDS011;25147;52.142;9.960;2023-08-17T06:47:50;9.32;;;8.55;;
39442;SDS011;25147;52.142;9.960;2023-08-17T06:50:17;9.93;;;9.00;;
39442;SDS011;25147;52.142;9.960;2023-08-17T06:52:43;9.90;;;8.93;;
39442;SDS011;25147;52.142;9.960;2023-08-17T06:55:10;9.43;;;8.63;;
39442;SDS011;25147;52.142;9.960;2023-08-17T06:57:37;10.57;;;9.60;;
39442;SDS011;25147;52.142;9.960;2023-08-17T07:00:04;11.30;;;10.23;;
39442;SDS011;25147;52.142;9.960;2023-08-17T07:02:32;10.85;;;9.95;;
39442;SDS011;25147;52.142;9.960;2023-08-17T07:05:00;10.85;;;9.85;;
39442;SDS011;25147;52.142;9.960;2023-08-17T07:07:29;11.27;;;10.27;;
39442;SDS011;25147;52.142;9.960;2023-08-17T07:09:56;12.85;;;11.75;;
39442;SDS011;25147;52.142;9.960;2023-08-17T07:12:23;12.95;;;11.65;;
39442;SDS011;25147;52.142;9.960;2023-08-17T07:14:50;14.52;;;13.18;;
39442;SDS011;25147;52.142;9.960;2023-08-17T07:17:17;13.32;;;11.95;;
39442;SDS011;25147;52.142;9.960;2023-08-17T07:19:44;14.57;;;13.25;;
39442;SDS011;25147;52.142;9.960;2023-08-17T07:22:12;15.38;;;14.07;;
39442;SDS011;25147;52.142;9.960;2023-08-17T07:24:39;16.02;;;14.48;;
39442;SDS011;25147;52.142;9.960;2023-08-17T07:27:06;17.38;;;15.77;;
39442;SDS011;25147;52.142;9.960;2023-08-17T07:29:33;16.85;;;15.32;;
39442;SDS011;25147;52.142;9.960;2023-08-17T07:31:59;16.58;;;15.13;;
39442;SDS011;25147;52.142;9.960;2023-08-17T07:34:27;17.33;;;15.73;;
39442;SDS011;25147;52.142;9.960;2023-08-17T07:36:55;17.40;;;15.55;;
39442;SDS011;25147;52.142;9.960;2023-08-17T07:39:24;17.70;;;15.57;;
39442;SDS011;25147;52.142;9.960;2023-08-17T07:41:50;18.38;;;16.58;;
39442;SDS011;25147;52.142;9.960;2023-08-17T07:44:17;16.98;;;14.90;;
39442;SDS011;25147;52.142;9.960;2023-08-17T07:46:44;17.27;;;15.68;;
39442;SDS011;25147;52.142;9.960;2023-08-17T07:49:11;16.38;;;14.95;;
39442;SDS011;25147;52.142;9.960;2023-08-17T07:51:38;16.52;;;14.93;;
39442;SDS011;25147;52.142;9.960;2023-08-17T07:54:04;17.25;;;15.65;;
39442;SDS011;25147;52.142;9.960;2023-08-17T07:56:33;17.38;;;15.77;;
39442;SDS011;25147;52.142;9.960;2023-08-17T07:59:00;18.23;;;16.40;;
39442;SDS011;25147;52.142;9.960;2023-08-17T08:01:27;18.30;;;16.48;;
39442;SDS011;25147;52.142;9.960;2023-08-17T08:03:53;19.58;;;17.67;;
39442;SDS011;25147;52.142;9.960;2023-08-17T08:06:20;18.83;;;17.08;;
39442;SDS011;25147;52.142;9.960;2023-08-17T08:08:48;18.77;;;17.00;;
39442;SDS011;25147;52.142;9.960;2023-08-17T08:11:15;18.55;;;16.77;;
39442;SDS011;25147;52.142;9.960;2023-08-17T08:13:43;19.00;;;17.13;;
39442;SDS011;25147;52.142;9.960;2023-08-17T08:16:10;18.58;;;16.88;;
39442;SDS011;25147;52.142;9.960;2023-08-17T08:18:37;19.25;;;17.30;;
39442;SDS011;25147;52.142;9.960;2023-08-17T08:21:04;19.02;;;17.05;;
39442;SDS011;25147;52.142;9.960;2023-08-17T08:23:31;17.50;;;15.77;;
39442;SDS011;25147;52.142;9.960;2023-08-17T08:25:57;15.55;;;14.15;;
39442;SDS011;25147;52.142;9.960;2023-08-17T08:28:25;15.27;;;13.85;;
39442;SDS011;25147;52.142;9.960;2023-08-17T08:30:53;14.68;;;13.38;;
39442;SDS011;25147;52.142;9.960;2023-08-17T08:33:20;13.77;;;12.52;;
39442;SDS011;25147;52.142;9.960;2023-08-17T08:35:46;12.68;;;11.52;;
39442;SDS011;25147;52.142;9.960;2023-08-17T08:38:13;11.93;;;10.73;;
39442;SDS011;25147;52.142;9.960;2023-08-17T08:40:40;11.70;;;10.48;;
39442;SDS011;25147;52.142;9.960;2023-08-17T08:43:08;11.55;;;10.60;;
39442;SDS011;25147;52.142;9.960;2023-08-17T08:45:35;12.25;;;11.27;;
39442;SDS011;25147;52.142;9.960;2023-08-17T08:48:07;11.88;;;10.98;;
39442;SDS011;25147;52.142;9.960;2023-08-17T08:50:35;8.43;;;7.70;;
39442;SDS011;25147;52.142;9.960;2023-08-17T08:53:03;9.63;;;8.68;;
39442;SDS011;25147;52.142;9.960;2023-08-17T08:55:36;8.93;;;8.13;;
39442;SDS011;25147;52.142;9.960;2023-08-17T08:58:05;8.73;;;8.02;;
39442;SDS011;25147;52.142;9.960;2023-08-17T09:00:33;8.90;;;8.10;;
39442;SDS011;25147;52.142;9.960;2023-08-17T09:03:01;5.68;;;5.28;;
39442;SDS011;25147;52.142;9.960;2023-08-17T09:05:30;5.50;;;5.10;;
39442;SDS011;25147;52.142;9.960;2023-08-17T09:07:59;5.95;;;5.55;;
39442;SDS011;25147;52.142;9.960;2023-08-17T09:10:28;5.68;;;5.18;;
39442;SDS011;25147;52.142;9.960;2023-08-17T09:12:55;5.47;;;5.18;;
39442;SDS011;25147;52.142;9.960;2023-08-17T09:15:22;6.90;;;6.45;;
39442;SDS011;25147;52.142;9.960;2023-08-17T09:17:48;8.20;;;7.55;;
39442;SDS011;25147;52.142;9.960;2023-08-17T09:23:10;9.98;;;9.07;;
39442;SDS011;25147;52.142;9.960;2023-08-17T09:25:39;10.63;;;9.73;;
39442;SDS011;25147;52.142;9.960;2023-08-17T09:28:07;10.35;;;9.45;;
39442;SDS011;25147;52.142;9.960;2023-08-17T09:30:48;10.15;;;9.35;;
39442;SDS011;25147;52.142;9.960;2023-08-17T09:33:16;9.98;;;9.27;;
39442;SDS011;25147;52.142;9.960;2023-08-17T09:35:44;12.48;;;11.23;;
39442;SDS011;25147;52.142;9.960;2023-08-17T09:38:11;13.95;;;12.75;;
39442;SDS011;25147;52.142;9.960;2023-08-17T09:40:38;15.27;;;14.07;;
39442;SDS011;25147;52.142;9.960;2023-08-17T09:43:05;16.30;;;14.95;;
39442;SDS011;25147;52.142;9.960;2023-08-17T09:45:32;17.00;;;15.52;;
39442;SDS011;25147;52.142;9.960;2023-08-17T09:47:59;15.05;;;13.63;;
39442;SDS011;25147;52.142;9.960;2023-08-17T09:50:26;13.60;;;12.60;;
39442;SDS011;25147;52.142;9.960;2023-08-17T09:52:55;12.65;;;11.65;;
39442;SDS011;25147;52.142;9.960;2023-08-17T09:55:25;12.63;;;11.35;;
39442;SDS011;25147;52.142;9.960;2023-08-17T09:57:52;11.93;;;11.00;;
39442;SDS011;25147;52.142;9.960;2023-08-17T10:00:19;11.88;;;10.90;;
39442;SDS011;25147;52.142;9.960;2023-08-17T10:02:47;9.32;;;8.63;;
39442;SDS011;25147;52.142;9.960;2023-08-17T10:05:16;11.63;;;10.57;;
39442;SDS011;25147;52.142;9.960;2023-08-17T10:07:47;9.93;;;9.02;;
39442;SDS011;25147;52.142;9.960;2023-08-17T10:10:22;7.15;;;6.65;;
39442;SDS011;25147;52.142;9.960;2023-08-17T10:12:53;5.45;;;5.03;;
39442;SDS011;25147;52.142;9.960;2023-08-17T10:15:34;5.18;;;4.88;;
39442;SDS011;25147;52.142;9.960;2023-08-17T10:18:07;5.00;;;4.60;;
39442;SDS011;25147;52.142;9.960;2023-08-17T10:20:39;4.90;;;4.50;;
39442;SDS011;25147;52.142;9.960;2023-08-17T10:23:10;5.13;;;4.72;;
39442;SDS011;25147;52.142;9.960;2023-08-17T10:25:42;5.82;;;4.30;;
39442;SDS011;25147;52.142;9.960;2023-08-17T10:28:10;4.78;;;4.47;;
39442;SDS011;25147;52.142;9.960;2023-08-17T10:30:37;4.68;;;4.38;;
39442;SDS011;25147;52.142;9.960;2023-08-17T10:33:05;5.15;;;4.10;;
39442;SDS011;25147;52.142;9.960;2023-08-17T10:35:35;4.38;;;4.07;;
39442;SDS011;25147;52.142;9.960;2023-08-17T10:38:03;3.97;;;3.75;;
39442;SDS011;25147;52.142;9.960;2023-08-17T10:40:34;4.35;;;4.05;;
39442;SDS011;25147;52.142;9.960;2023-08-17T10:43:04;4.50;;;4.20;;
39442;SDS011;25147;52.142;9.960;2023-08-17T10:45:31;5.30;;;4.90;;
39442;SDS011;25147;52.142;9.960;2023-08-17T10:48:00;4.55;;;4.25;;
39442;SDS011;25147;52.142;9.960;2023-08-17T10:51:01;6.28;;;4.97;;
39442;SDS011;25147;52.142;9.960;2023-08-17T10:53:33;6.43;;;5.93;;
39442;SDS011;25147;52.142;9.960;2023-08-17T10:56:06;6.03;;;5.38;;
39442;SDS011;25147;52.142;9.960;2023-08-17T10:58:35;5.95;;;5.55;;
39442;SDS011;25147;52.142;9.960;2023-08-17T11:01:02;6.00;;;5.60;;
39442;SDS011;25147;52.142;9.960;2023-08-17T11:03:29;6.50;;;5.97;;
39442;SDS011;25147;52.142;9.960;2023-08-17T11:05:57;6.13;;;5.72;;
39442;SDS011;25147;52.142;9.960;2023-08-17T11:08:27;6.22;;;5.72;;
39442;SDS011;25147;52.142;9.960;2023-08-17T11:11:04;6.60;;;6.20;;
39442;SDS011;25147;52.142;9.960;2023-08-17T11:13:36;6.93;;;6.32;;
39442;SDS011;25147;52.142;9.960;2023-08-17T11:16:04;7.45;;;6.85;;
39442;SDS011;25147;52.142;9.960;2023-08-17T11:18:31;7.40;;;6.82;;
39442;SDS011;25147;52.142;9.960;2023-08-17T11:20:59;6.95;;;6.45;;
39442;SDS011;25147;52.142;9.960;2023-08-17T11:23:28;7.30;;;6.80;;
39442;SDS011;25147;52.142;9.960;2023-08-17T11:25:55;8.57;;;7.63;;
39442;SDS011;25147;52.142;9.960;2023-08-17T11:28:23;8.30;;;7.63;;
39442;SDS011;25147;52.142;9.960;2023-08-17T11:30:57;9.52;;;8.73;;
39442;SDS011;25147;52.142;9.960;2023-08-17T11:33:23;10.00;;;9.15;;
39442;SDS011;25147;52.142;9.960;2023-08-17T11:35:53;10.25;;;9.50;;
39442;SDS011;25147;52.142;9.960;2023-08-17T11:38:20;11.60;;;10.68;;
39442;SDS011;25147;52.142;9.960;2023-08-17T11:40:47;12.73;;;11.52;;
39442;SDS011;25147;52.142;9.960;2023-08-17T11:43:15;12.80;;;11.60;;
39442;SDS011;25147;52.142;9.960;2023-08-17T11:45:42;12.57;;;11.68;;
39442;SDS011;25147;52.142;9.960;2023-08-17T11:48:10;13.50;;;12.40;;
39442;SDS011;25147;52.142;9.960;2023-08-17T11:50:37;14.25;;;13.05;;
39442;SDS011;25147;52.142;9.960;2023-08-17T11:53:04;14.80;;;13.45;;
39442;SDS011;25147;52.142;9.960;2023-08-17T11:55:31;14.88;;;13.57;;
39442;SDS011;25147;52.142;9.960;2023-08-17T11:57:58;15.43;;;14.18;;
39442;SDS011;25147;52.142;9.960;2023-08-17T12:00:25;15.32;;;14.02;;
39442;SDS011;25147;52.142;9.960;2023-08-17T12:02:52;15.90;;;14.32;;
39442;SDS011;25147;52.142;9.960;2023-08-17T12:05:21;16.63;;;15.13;;
39442;SDS011;25147;52.142;9.960;2023-08-17T12:07:53;16.98;;;15.38;;
39442;SDS011;25147;52.142;9.960;2023-08-17T12:10:20;17.83;;;15.90;;
39442;SDS011;25147;52.142;9.960;2023-08-17T12:12:48;18.30;;;16.40;;
39442;SDS011;25147;52.142;9.960;2023-08-17T12:15:15;18.20;;;16.60;;
39442;SDS011;25147;52.142;9.960;2023-08-17T12:17:44;18.50;;;16.70;;
39442;SDS011;25147;52.142;9.960;2023-08-17T12:20:16;19.20;;;17.20;;
39442;SDS011;25147;52.142;9.960;2023-08-17T12:22:45;18.92;;;17.15;;
39442;SDS011;25147;52.142;9.960;2023-08-17T12:25:14;20.80;;;17.42;;
39442;SDS011;25147;52.142;9.960;2023-08-17T12:27:41;17.30;;;15.68;;
39442;SDS011;25147;52.142;9.960;2023-08-17T12:30:12;17.67;;;15.93;;
39442;SDS011;25147;52.142;9.960;2023-08-17T12:32:40;19.08;;;17.05;;
39442;SDS011;25147;52.142;9.960;2023-08-17T12:35:07;20.25;;;17.10;;
39442;SDS011;25147;52.142;9.960;2023-08-17T12:37:34;17.88;;;16.13;;
39442;SDS011;25147;52.142;9.960;2023-08-17T12:40:03;18.13;;;16.13;;
39442;SDS011;25147;52.142;9.960;2023-08-17T12:42:30;18.95;;;17.05;;
39442;SDS011;25147;52.142;9.960;2023-08-17T12:44:57;18.80;;;16.80;;
39442;SDS011;25147;52.142;9.960;2023-08-17T12:47:24;16.75;;;14.85;;
39442;SDS011;25147;52.142;9.960;2023-08-17T12:49:51;17.35;;;15.30;;
39442;SDS011;25147;52.142;9.960;2023-08-17T12:52:17;17.70;;;14.85;;
39442;SDS011;25147;52.142;9.960;2023-08-17T12:54:44;16.92;;;15.23;;
39442;SDS011;25147;52.142;9.960;2023-08-17T12:57:13;17.13;;;13.80;;
39442;SDS011;25147;52.142;9.960;2023-08-17T12:59:39;14.88;;;12.63;;
39442;SDS011;25147;52.142;9.960;2023-08-17T13:02:09;14.52;;;12.93;;
39442;SDS011;25147;52.142;9.960;2023-08-17T13:04:39;17.58;;;13.00;;
39442;SDS011;25147;52.142;9.960;2023-08-17T13:07:06;15.65;;;14.05;;
39442;SDS011;25147;52.142;9.960;2023-08-17T13:09:33;20.45;;;15.40;;
39442;SDS011;25147;52.142;9.960;2023-08-17T13:11:59;18.77;;;14.82;;
39442;SDS011;25147;52.142;9.960;2023-08-17T13:14:28;16.77;;;13.77;;
39442;SDS011;25147;52.142;9.960;2023-08-17T13:16:55;14.57;;;13.07;;
39442;SDS011;25147;52.142;9.960;2023-08-17T13:19:23;17.95;;;13.05;;
39442;SDS011;25147;52.142;9.960;2023-08-17T13:21:50;16.83;;;12.60;;
39442;SDS011;25147;52.142;9.960;2023-08-17T13:24:19;15.15;;;12.82;;
39442;SDS011;25147;52.142;9.960;2023-08-17T13:26:49;16.63;;;12.23;;
39442;SDS011;25147;52.142;9.960;2023-08-17T13:29:19;13.75;;;12.30;;
39442;SDS011;25147;52.142;9.960;2023-08-17T13:31:47;14.50;;;10.80;;
39442;SDS011;25147;52.142;9.960;2023-08-17T13:34:14;12.27;;;10.25;;
39442;SDS011;25147;52.142;9.960;2023-08-17T13:36:42;14.00;;;11.55;;
39442;SDS011;25147;52.142;9.960;2023-08-17T13:39:08;14.68;;;12.20;;
39442;SDS011;25147;52.142;9.960;2023-08-17T13:41:35;14.75;;;11.82;;
39442;SDS011;25147;52.142;9.960;2023-08-17T13:44:03;15.27;;;11.52;;
39442;SDS011;25147;52.142;9.960;2023-08-17T13:46:34;17.05;;;12.75;;
39442;SDS011;25147;52.142;9.960;2023-08-17T13:49:06;17.85;;;12.23;;
39442;SDS011;25147;52.142;9.960;2023-08-17T13:51:33;16.00;;;13.80;;
39442;SDS011;25147;52.142;9.960;2023-08-17T13:54:00;17.45;;;13.20;;
39442;SDS011;25147;52.142;9.960;2023-08-17T13:56:28;15.55;;;12.32;;
39442;SDS011;25147;52.142;9.960;2023-08-17T13:58:55;19.48;;;13.52;;
39442;SDS011;25147;52.142;9.960;2023-08-17T14:01:24;20.23;;;14.25;;
39442;SDS011;25147;52.142;9.960;2023-08-17T14:03:51;20.13;;;15.63;;
39442;SDS011;25147;52.142;9.960;2023-08-17T14:06:20;19.35;;;14.55;;
39442;SDS011;25147;52.142;9.960;2023-08-17T14:08:49;21.80;;;14.75;;
39442;SDS011;25147;52.142;9.960;2023-08-17T14:11:16;24.88;;;15.40;;
39442;SDS011;25147;52.142;9.960;2023-08-17T14:13:43;23.52;;;14.98;;
39442;SDS011;25147;52.142;9.960;2023-08-17T14:16:10;20.15;;;14.50;;
39442;SDS011;25147;52.142;9.960;2023-08-17T14:18:39;21.52;;;14.52;;
39442;SDS011;25147;52.142;9.960;2023-08-17T14:21:06;22.52;;;15.20;;
39442;SDS011;25147;52.142;9.960;2023-08-17T14:23:35;25.38;;;15.52;;
39442;SDS011;25147;52.142;9.960;2023-08-17T14:26:02;21.73;;;15.32;;
39442;SDS011;25147;52.142;9.960;2023-08-17T14:28:29;23.23;;;16.55;;
39442;SDS011;25147;52.142;9.960;2023-08-17T14:30:57;23.83;;;16.40;;
39442;SDS011;25147;52.142;9.960;2023-08-17T14:33:24;26.25;;;17.10;;
39442;SDS011;25147;52.142;9.960;2023-08-17T14:35:51;22.42;;;17.27;;
39442;SDS011;25147;52.142;9.960;2023-08-17T14:38:18;21.83;;;16.15;;
39442;SDS011;25147;52.142;9.960;2023-08-17T14:40:47;24.45;;;16.30;;
39442;SDS011;25147;52.142;9.960;2023-08-17T14:43:15;20.90;;;15.63;;
39442;SDS011;25147;52.142;9.960;2023-08-17T14:45:42;21.20;;;14.95;;
39442;SDS011;25147;52.142;9.960;2023-08-17T14:48:09;20.58;;;14.25;;